sensor_id;sensor_type;location;lat;lon;timestamp;pressure;altitude;pressure_sealevel;temperature;humidity
58662;BME280;44432;49.786;22.760;2023-08-12T00:01:17;99997.55;;;11.82;80.66
58662;BME280;44432;49.786;22.760;2023-08-12T00:03:50;99997.13;;;11.79;80.77
58662;BME280;44432;49.786;22.760;2023-08-12T00:06:21;99995.26;;;11.77;80.63
58662;BME280;44432;49.786;22.760;2023-08-12T00:08:51;99993.94;;;11.75;80.90
58662;BME280;44432;49.786;22.760;2023-08-12T00:11:22;99993.92;;;11.74;81.00
58662;BME280;44432;49.786;22.760;2023-08-12T00:13:53;99994.81;;;11.72;80.98
58662;BME280;44432;49.786;22.760;2023-08-12T00:16:23;99995.98;;;11.70;81.18
58662;BME280;44432;49.786;22.760;2023-08-12T00:18:54;99993.71;;;11.69;81.22
58662;BME280;44432;49.786;22.760;2023-08-12T00:21:25;99991.52;;;11.65;81.11
58662;BME280;44432;49.786;22.760;2023-08-12T00:23:56;99994.12;;;11.65;81.22
58662;BME280;44432;49.786;22.760;2023-08-12T00:26:26;99993.58;;;11.62;81.28
58662;BME280;44432;49.786;22.760;2023-08-12T00:28:57;99993.98;;;11.58;81.38
58662;BME280;44432;49.786;22.760;2023-08-12T00:31:28;99996.90;;;11.54;81.37
58662;BME280;44432;49.786;22.760;2023-08-12T00:33:58;99996.41;;;11.51;81.46
58662;BME280;44432;49.786;22.760;2023-08-12T00:36:29;99991.70;;;11.48;81.82
58662;BME280;44432;49.786;22.760;2023-08-12T00:38:59;99994.05;;;11.46;81.91
58662;BME280;44432;49.786;22.760;2023-08-12T00:41:30;99995.67;;;11.44;81.83
58662;BME280;44432;49.786;22.760;2023-08-12T00:44:01;99996.02;;;11.42;81.96
58662;BME280;44432;49.786;22.760;2023-08-12T00:46:32;99996.71;;;11.40;82.09
58662;BME280;44432;49.786;22.760;2023-08-12T00:49:03;99994.14;;;11.37;82.12
58662;BME280;44432;49.786;22.760;2023-08-12T00:51:34;99993.13;;;11.36;82.14
58662;BME280;44432;49.786;22.760;2023-08-12T00:54:07;99993.31;;;11.33;82.36
58662;BME280;44432;49.786;22.760;2023-08-12T00:56:38;99994.70;;;11.31;82.25
58662;BME280;44432;49.786;22.760;2023-08-12T00:59:09;99992.57;;;11.28;82.40
58662;BME280;44432;49.786;22.760;2023-08-12T01:01:41;99993.34;;;11.25;82.67
58662;BME280;44432;49.786;22.760;2023-08-12T01:04:12;99995.44;;;11.21;82.42
58662;BME280;44432;49.786;22.760;2023-08-12T01:06:43;99993.85;;;11.20;82.64
58662;BME280;44432;49.786;22.760;2023-08-12T01:09:14;99993.03;;;11.20;82.80
58662;BME280;44432;49.786;22.760;2023-08-12T01:11:52;99991.77;;;11.18;82.99
58662;BME280;44432;49.786;22.760;2023-08-12T01:14:31;99992.33;;;11.15;82.92
58662;BME280;44432;49.786;22.760;2023-08-12T01:17:05;99992.40;;;11.13;82.84
58662;BME280;44432;49.786;22.760;2023-08-12T01:19:40;99991.55;;;11.10;83.07
58662;BME280;44432;49.786;22.760;2023-08-12T01:22:12;99992.71;;;11.08;82.83
58662;BME280;44432;49.786;22.760;2023-08-12T01:24:44;99995.27;;;11.05;83.02
58662;BME280;44432;49.786;22.760;2023-08-12T01:27:15;99993.58;;;11.03;83.25
58662;BME280;44432;49.786;22.760;2023-08-12T01:29:48;99988.65;;;11.00;83.23
58662;BME280;44432;49.786;22.760;2023-08-12T01:32:25;99989.26;;;10.98;83.41
58662;BME280;44432;49.786;22.760;2023-08-12T01:35:03;99986.40;;;10.97;83.39
58662;BME280;44432;49.786;22.760;2023-08-12T01:37:36;99989.58;;;10.96;83.56
58662;BME280;44432;49.786;22.760;2023-08-12T01:40:10;99985.83;;;10.95;83.66
58662;BME280;44432;49.786;22.760;2023-08-12T01:42:42;99986.07;;;10.93;83.73
58662;BME280;44432;49.786;22.760;2023-08-12T01:45:13;99989.02;;;10.92;83.81
58662;BME280;44432;49.786;22.760;2023-08-12T01:47:45;99987.40;;;10.91;83.76
58662;BME280;44432;49.786;22.760;2023-08-12T01:50:17;99986.17;;;10.89;83.64
58662;BME280;44432;49.786;22.760;2023-08-12T01:52:48;99981.66;;;10.89;83.88
58662;BME280;44432;49.786;22.760;2023-08-12T01:55:19;99981.86;;;10.88;83.96
58662;BME280;44432;49.786;22.760;2023-08-12T01:57:49;99983.89;;;10.87;84.00
58662;BME280;44432;49.786;22.760;2023-08-12T02:00:20;99980.22;;;10.85;83.99
58662;BME280;44432;49.786;22.760;2023-08-12T02:02:51;99982.48;;;10.84;83.90
58662;BME280;44432;49.786;22.760;2023-08-12T02:05:21;99983.66;;;10.82;83.98
58662;BME280;44432;49.786;22.760;2023-08-12T02:07:52;99983.17;;;10.80;84.07
58662;BME280;44432;49.786;22.760;2023-08-12T02:10:23;99982.34;;;10.78;84.10
58662;BME280;44432;49.786;22.760;2023-08-12T02:12:54;99982.30;;;10.76;84.26
58662;BME280;44432;49.786;22.760;2023-08-12T02:15:24;99979.45;;;10.75;84.12
58662;BME280;44432;49.786;22.760;2023-08-12T02:17:55;99981.19;;;10.73;84.26
58662;BME280;44432;49.786;22.760;2023-08-12T02:20:26;99981.50;;;10.72;84.27
58662;BME280;44432;49.786;22.760;2023-08-12T02:22:56;99979.75;;;10.71;84.25
58662;BME280;44432;49.786;22.760;2023-08-12T02:25:27;99978.69;;;10.70;84.47
58662;BME280;44432;49.786;22.760;2023-08-12T02:27:58;99984.40;;;10.67;84.40
58662;BME280;44432;49.786;22.760;2023-08-12T02:30:30;99983.83;;;10.65;84.48
58662;BME280;44432;49.786;22.760;2023-08-12T02:33:00;99982.52;;;10.63;84.37
58662;BME280;44432;49.786;22.760;2023-08-12T02:35:32;99982.51;;;10.62;84.54
58662;BME280;44432;49.786;22.760;2023-08-12T02:38:03;99985.13;;;10.59;84.42
58662;BME280;44432;49.786;22.760;2023-08-12T02:40:33;99978.98;;;10.58;84.65
58662;BME280;44432;49.786;22.760;2023-08-12T02:43:04;99980.37;;;10.57;84.57
58662;BME280;44432;49.786;22.760;2023-08-12T02:45:35;99982.35;;;10.55;84.57
58662;BME280;44432;49.786;22.760;2023-08-12T02:48:07;99984.09;;;10.54;84.59
58662;BME280;44432;49.786;22.760;2023-08-12T02:50:38;99984.36;;;10.52;84.59
58662;BME280;44432;49.786;22.760;2023-08-12T02:53:09;99985.09;;;10.51;84.71
58662;BME280;44432;49.786;22.760;2023-08-12T02:55:40;99986.80;;;10.52;84.81
58662;BME280;44432;49.786;22.760;2023-08-12T02:58:10;99986.02;;;10.49;84.84
58662;BME280;44432;49.786;22.760;2023-08-12T03:00:43;99986.34;;;10.50;84.63
58662;BME280;44432;49.786;22.760;2023-08-12T03:03:14;99988.48;;;10.49;84.79
58662;BME280;44432;49.786;22.760;2023-08-12T03:05:48;99987.67;;;10.49;84.78
58662;BME280;44432;49.786;22.760;2023-08-12T03:08:19;99985.23;;;10.49;84.86
58662;BME280;44432;49.786;22.760;2023-08-12T03:10:49;99989.30;;;10.48;84.81
58662;BME280;44432;49.786;22.760;2023-08-12T03:13:20;99990.20;;;10.48;84.83
58662;BME280;44432;49.786;22.760;2023-08-12T03:15:51;99993.00;;;10.48;84.83
58662;BME280;44432;49.786;22.760;2023-08-12T03:18:22;99992.77;;;10.47;84.63
58662;BME280;44432;49.786;22.760;2023-08-12T03:20:52;99992.94;;;10.46;84.79
58662;BME280;44432;49.786;22.760;2023-08-12T03:23:23;99989.88;;;10.44;84.89
58662;BME280;44432;49.786;22.760;2023-08-12T03:25:54;99990.95;;;10.42;84.86
58662;BME280;44432;49.786;22.760;2023-08-12T03:28:24;99989.98;;;10.42;84.89
58662;BME280;44432;49.786;22.760;2023-08-12T03:30:55;99996.73;;;10.42;85.18
58662;BME280;44432;49.786;22.760;2023-08-12T03:33:26;99998.89;;;10.44;85.03
58662;BME280;44432;49.786;22.760;2023-08-12T03:35:56;99999.46;;;10.43;84.96
58662;BME280;44432;49.786;22.760;2023-08-12T03:38:27;100003.58;;;10.44;84.95
58662;BME280;44432;49.786;22.760;2023-08-12T03:40:58;100005.52;;;10.44;85.09
58662;BME280;44432;49.786;22.760;2023-08-12T03:43:28;100007.67;;;10.45;84.98
58662;BME280;44432;49.786;22.760;2023-08-12T03:45:59;100008.20;;;10.45;85.00
58662;BME280;44432;49.786;22.760;2023-08-12T03:48:30;100011.30;;;10.47;84.98
58662;BME280;44432;49.786;22.760;2023-08-12T03:51:01;100014.89;;;10.49;85.00
58662;BME280;44432;49.786;22.760;2023-08-12T03:53:32;100014.96;;;10.53;84.99
58662;BME280;44432;49.786;22.760;2023-08-12T03:56:03;100011.63;;;10.54;85.02
58662;BME280;44432;49.786;22.760;2023-08-12T03:58:34;100016.77;;;10.59;85.01
58662;BME280;44432;49.786;22.760;2023-08-12T04:01:05;100012.69;;;10.63;84.81
58662;BME280;44432;49.786;22.760;2023-08-12T04:03:35;100014.30;;;10.66;84.85
58662;BME280;44432;49.786;22.760;2023-08-12T04:06:06;100012.25;;;10.70;84.94
58662;BME280;44432;49.786;22.760;2023-08-12T04:08:37;100015.07;;;10.73;84.83
58662;BME280;44432;49.786;22.760;2023-08-12T04:11:07;100012.61;;;10.77;84.85
58662;BME280;44432;49.786;22.760;2023-08-12T04:13:38;100014.30;;;10.82;84.67
58662;BME280;44432;49.786;22.760;2023-08-12T04:16:09;100020.83;;;10.87;84.73
58662;BME280;44432;49.786;22.760;2023-08-12T04:18:40;100021.14;;;10.92;84.47
58662;BME280;44432;49.786;22.760;2023-08-12T04:21:11;100020.55;;;10.96;84.60
58662;BME280;44432;49.786;22.760;2023-08-12T04:23:42;100023.95;;;11.01;84.55
58662;BME280;44432;49.786;22.760;2023-08-12T04:26:13;100026.53;;;11.07;84.43
58662;BME280;44432;49.786;22.760;2023-08-12T04:28:44;100026.35;;;11.12;84.39
58662;BME280;44432;49.786;22.760;2023-08-12T04:31:14;100027.17;;;11.17;84.15
58662;BME280;44432;49.786;22.760;2023-08-12T04:33:45;100025.09;;;11.22;84.12
58662;BME280;44432;49.786;22.760;2023-08-12T04:36:16;100025.02;;;11.26;84.05
58662;BME280;44432;49.786;22.760;2023-08-12T04:38:46;100030.19;;;11.30;83.91
58662;BME280;44432;49.786;22.760;2023-08-12T04:41:17;100025.98;;;11.35;83.86
58662;BME280;44432;49.786;22.760;2023-08-12T04:43:48;100025.55;;;11.40;83.87
58662;BME280;44432;49.786;22.760;2023-08-12T04:46:18;100025.75;;;11.44;83.67
58662;BME280;44432;49.786;22.760;2023-08-12T04:48:49;100022.41;;;11.49;83.76
58662;BME280;44432;49.786;22.760;2023-08-12T04:51:20;100023.89;;;11.56;83.75
58662;BME280;44432;49.786;22.760;2023-08-12T04:53:50;100021.94;;;11.61;83.98
58662;BME280;44432;49.786;22.760;2023-08-12T04:56:21;100022.77;;;11.69;84.10
58662;BME280;44432;49.786;22.760;2023-08-12T04:58:53;100026.41;;;11.76;83.92
58662;BME280;44432;49.786;22.760;2023-08-12T05:01:24;100025.51;;;11.84;83.81
58662;BME280;44432;49.786;22.760;2023-08-12T05:03:55;100029.67;;;11.91;83.72
58662;BME280;44432;49.786;22.760;2023-08-12T05:06:25;100030.81;;;11.98;83.47
58662;BME280;44432;49.786;22.760;2023-08-12T05:08:56;100026.74;;;12.05;83.68
58662;BME280;44432;49.786;22.760;2023-08-12T05:11:27;100025.65;;;12.11;83.69
58662;BME280;44432;49.786;22.760;2023-08-12T05:13:58;100026.42;;;12.19;83.53
58662;BME280;44432;49.786;22.760;2023-08-12T05:16:28;100027.55;;;12.28;83.39
58662;BME280;44432;49.786;22.760;2023-08-12T05:18:59;100026.31;;;12.37;83.35
58662;BME280;44432;49.786;22.760;2023-08-12T05:21:30;100025.25;;;12.45;83.21
58662;BME280;44432;49.786;22.760;2023-08-12T05:24:01;100026.27;;;12.55;83.24
58662;BME280;44432;49.786;22.760;2023-08-12T05:26:32;100027.98;;;12.65;82.94
58662;BME280;44432;49.786;22.760;2023-08-12T05:29:02;100028.21;;;12.76;83.04
58662;BME280;44432;49.786;22.760;2023-08-12T05:31:33;100026.76;;;12.87;82.72
58662;BME280;44432;49.786;22.760;2023-08-12T05:34:04;100026.27;;;12.97;82.51
58662;BME280;44432;49.786;22.760;2023-08-12T05:36:35;100022.61;;;13.06;82.34
58662;BME280;44432;49.786;22.760;2023-08-12T05:39:06;100024.63;;;13.18;82.09
58662;BME280;44432;49.786;22.760;2023-08-12T05:41:36;100022.58;;;13.29;81.97
58662;BME280;44432;49.786;22.760;2023-08-12T05:44:08;100020.52;;;13.40;81.88
58662;BME280;44432;49.786;22.760;2023-08-12T05:46:38;100017.70;;;13.52;81.75
58662;BME280;44432;49.786;22.760;2023-08-12T05:49:09;100016.71;;;13.64;81.57
58662;BME280;44432;49.786;22.760;2023-08-12T05:51:40;100018.88;;;13.76;81.39
58662;BME280;44432;49.786;22.760;2023-08-12T05:54:10;100016.25;;;13.90;81.25
58662;BME280;44432;49.786;22.760;2023-08-12T05:56:41;100011.04;;;14.03;80.93
58662;BME280;44432;49.786;22.760;2023-08-12T05:59:12;100010.40;;;14.16;80.68
58662;BME280;44432;49.786;22.760;2023-08-12T06:01:42;100007.27;;;14.28;80.53
58662;BME280;44432;49.786;22.760;2023-08-12T06:04:13;100003.65;;;14.41;80.24
58662;BME280;44432;49.786;22.760;2023-08-12T06:06:44;100001.52;;;14.54;80.05
58662;BME280;44432;49.786;22.760;2023-08-12T06:09:14;100003.82;;;14.67;79.89
58662;BME280;44432;49.786;22.760;2023-08-12T06:11:45;100002.02;;;14.81;79.84
58662;BME280;44432;49.786;22.760;2023-08-12T06:14:16;99998.11;;;14.94;79.44
58662;BME280;44432;49.786;22.760;2023-08-12T06:16:47;99997.68;;;15.05;79.24
58662;BME280;44432;49.786;22.760;2023-08-12T06:19:17;99994.81;;;15.19;79.04
58662;BME280;44432;49.786;22.760;2023-08-12T06:21:48;99997.58;;;15.32;78.72
58662;BME280;44432;49.786;22.760;2023-08-12T06:24:19;99998.88;;;15.45;78.65
58662;BME280;44432;49.786;22.760;2023-08-12T06:26:50;99999.81;;;15.60;78.36
58662;BME280;44432;49.786;22.760;2023-08-12T06:29:20;99995.09;;;15.74;78.05
58662;BME280;44432;49.786;22.760;2023-08-12T06:31:51;99998.05;;;15.89;77.75
58662;BME280;44432;49.786;22.760;2023-08-12T06:34:22;99997.86;;;16.03;77.50
58662;BME280;44432;49.786;22.760;2023-08-12T06:36:53;99994.36;;;16.17;77.10
58662;BME280;44432;49.786;22.760;2023-08-12T06:39:24;99989.12;;;16.30;76.68
58662;BME280;44432;49.786;22.760;2023-08-12T06:41:54;99986.84;;;16.45;76.29
58662;BME280;44432;49.786;22.760;2023-08-12T06:44:25;99986.27;;;16.60;76.01
58662;BME280;44432;49.786;22.760;2023-08-12T06:46:56;99984.24;;;16.76;75.67
58662;BME280;44432;49.786;22.760;2023-08-12T06:49:27;99984.44;;;16.91;75.37
58662;BME280;44432;49.786;22.760;2023-08-12T06:51:57;99975.27;;;17.05;75.13
58662;BME280;44432;49.786;22.760;2023-08-12T06:54:28;99974.11;;;17.19;74.63
58662;BME280;44432;49.786;22.760;2023-08-12T06:56:59;99974.28;;;17.34;74.34
58662;BME280;44432;49.786;22.760;2023-08-12T06:59:30;99973.90;;;17.49;74.23
58662;BME280;44432;49.786;22.760;2023-08-12T07:02:00;99965.38;;;17.62;73.79
58662;BME280;44432;49.786;22.760;2023-08-12T07:04:31;99963.70;;;17.78;73.36
58662;BME280;44432;49.786;22.760;2023-08-12T07:07:02;99963.64;;;17.93;73.03
58662;BME280;44432;49.786;22.760;2023-08-12T07:09:32;99963.98;;;18.09;72.64
58662;BME280;44432;49.786;22.760;2023-08-12T07:12:04;99961.37;;;18.24;72.20
58662;BME280;44432;49.786;22.760;2023-08-12T07:14:34;99961.11;;;18.41;71.59
58662;BME280;44432;49.786;22.760;2023-08-12T07:17:06;99958.77;;;18.57;70.97
58662;BME280;44432;49.786;22.760;2023-08-12T07:19:36;99954.73;;;18.71;70.37
58662;BME280;44432;49.786;22.760;2023-08-12T07:22:07;99956.98;;;18.86;69.69
58662;BME280;44432;49.786;22.760;2023-08-12T07:24:38;99949.90;;;18.99;69.27
58662;BME280;44432;49.786;22.760;2023-08-12T07:27:09;99951.02;;;19.13;69.00
58662;BME280;44432;49.786;22.760;2023-08-12T07:29:39;99950.14;;;19.27;68.50
58662;BME280;44432;49.786;22.760;2023-08-12T07:32:10;99945.66;;;19.41;67.60
58662;BME280;44432;49.786;22.760;2023-08-12T07:34:41;99943.73;;;19.55;66.47
58662;BME280;44432;49.786;22.760;2023-08-12T07:37:12;99943.27;;;19.70;65.83
58662;BME280;44432;49.786;22.760;2023-08-12T07:39:43;99944.76;;;19.85;64.93
58662;BME280;44432;49.786;22.760;2023-08-12T07:42:14;99942.66;;;20.00;63.66
58662;BME280;44432;49.786;22.760;2023-08-12T07:44:45;99945.70;;;20.13;63.48
58662;BME280;44432;49.786;22.760;2023-08-12T07:47:15;99946.85;;;20.26;62.74
58662;BME280;44432;49.786;22.760;2023-08-12T07:49:46;99944.89;;;20.38;61.71
58662;BME280;44432;49.786;22.760;2023-08-12T07:52:17;99944.17;;;20.51;61.24
58662;BME280;44432;49.786;22.760;2023-08-12T07:54:48;99944.27;;;20.64;60.87
58662;BME280;44432;49.786;22.760;2023-08-12T07:57:18;99942.19;;;20.75;59.92
58662;BME280;44432;49.786;22.760;2023-08-12T07:59:53;99943.09;;;20.83;58.91
58662;BME280;44432;49.786;22.760;2023-08-12T08:02:24;99939.35;;;20.91;58.28
58662;BME280;44432;49.786;22.760;2023-08-12T08:04:54;99935.14;;;21.00;58.16
58662;BME280;44432;49.786;22.760;2023-08-12T08:07:25;99937.74;;;21.11;57.32
58662;BME280;44432;49.786;22.760;2023-08-12T08:09:56;99930.47;;;21.21;57.18
58662;BME280;44432;49.786;22.760;2023-08-12T08:12:27;99931.80;;;21.33;56.41
58662;BME280;44432;49.786;22.760;2023-08-12T08:14:57;99928.63;;;21.42;55.68
58662;BME280;44432;49.786;22.760;2023-08-12T08:17:28;99927.24;;;21.50;55.14
58662;BME280;44432;49.786;22.760;2023-08-12T08:20:01;99924.19;;;21.59;54.87
58662;BME280;44432;49.786;22.760;2023-08-12T08:22:34;99921.12;;;21.69;54.64
58662;BME280;44432;49.786;22.760;2023-08-12T08:25:06;99919.82;;;21.79;53.87
58662;BME280;44432;49.786;22.760;2023-08-12T08:27:36;99912.96;;;21.87;53.74
58662;BME280;44432;49.786;22.760;2023-08-12T08:30:09;99918.05;;;21.99;53.44
58662;BME280;44432;49.786;22.760;2023-08-12T08:32:39;99918.33;;;22.07;51.40
58662;BME280;44432;49.786;22.760;2023-08-12T08:35:09;99919.98;;;22.16;50.82
58662;BME280;44432;49.786;22.760;2023-08-12T08:37:41;99917.70;;;22.24;50.17
58662;BME280;44432;49.786;22.760;2023-08-12T08:40:12;99914.98;;;22.32;49.85
58662;BME280;44432;49.786;22.760;2023-08-12T08:42:44;99910.45;;;22.37;48.82
58662;BME280;44432;49.786;22.760;2023-08-12T08:45:18;99913.70;;;22.46;49.13
58662;BME280;44432;49.786;22.760;2023-08-12T08:47:49;99907.73;;;22.55;49.01
58662;BME280;44432;49.786;22.760;2023-08-12T08:50:22;99905.91;;;22.66;48.79
58662;BME280;44432;49.786;22.760;2023-08-12T08:52:53;99904.25;;;22.76;47.90
58662;BME280;44432;49.786;22.760;2023-08-12T08:55:26;99901.34;;;22.83;47.58
58662;BME280;44432;49.786;22.760;2023-08-12T08:57:57;99901.10;;;22.91;47.56
58662;BME280;44432;49.786;22.760;2023-08-12T09:00:29;99900.49;;;23.02;47.09
58662;BME280;44432;49.786;22.760;2023-08-12T09:03:00;99899.47;;;23.10;45.96
58662;BME280;44432;49.786;22.760;2023-08-12T09:05:32;99901.58;;;23.16;46.11
58662;BME280;44432;49.786;22.760;2023-08-12T09:08:05;99899.80;;;23.25;46.39
58662;BME280;44432;49.786;22.760;2023-08-12T09:10:40;99892.13;;;23.34;45.98
58662;BME280;44432;49.786;22.760;2023-08-12T09:13:11;99895.20;;;23.42;45.98
58662;BME280;44432;49.786;22.760;2023-08-12T09:15:44;99895.40;;;23.50;45.95
58662;BME280;44432;49.786;22.760;2023-08-12T09:18:14;99892.61;;;23.58;44.19
58662;BME280;44432;49.786;22.760;2023-08-12T09:20:45;99887.95;;;23.61;43.76
58662;BME280;44432;49.786;22.760;2023-08-12T09:23:16;99890.23;;;23.65;43.20
58662;BME280;44432;49.786;22.760;2023-08-12T09:25:48;99888.23;;;23.67;42.59
58662;BME280;44432;49.786;22.760;2023-08-12T09:28:18;99888.38;;;23.68;42.53
58662;BME280;44432;49.786;22.760;2023-08-12T09:30:52;99884.04;;;23.71;42.42
58662;BME280;44432;49.786;22.760;2023-08-12T09:33:27;99884.26;;;23.75;42.04
58662;BME280;44432;49.786;22.760;2023-08-12T09:35:57;99882.05;;;23.80;42.54
58662;BME280;44432;49.786;22.760;2023-08-12T09:38:28;99882.02;;;23.84;41.57
58662;BME280;44432;49.786;22.760;2023-08-12T09:40:59;99881.25;;;23.85;41.71
58662;BME280;44432;49.786;22.760;2023-08-12T09:43:31;99883.29;;;23.94;41.28
58662;BME280;44432;49.786;22.760;2023-08-12T09:46:03;99884.09;;;23.99;40.67
58662;BME280;44432;49.786;22.760;2023-08-12T09:48:34;99875.66;;;24.06;40.97
58662;BME280;44432;49.786;22.760;2023-08-12T09:51:05;99874.55;;;24.17;41.01
58662;BME280;44432;49.786;22.760;2023-08-12T09:53:36;99869.95;;;24.30;41.00
58662;BME280;44432;49.786;22.760;2023-08-12T09:56:10;99871.59;;;24.46;40.25
58662;BME280;44432;49.786;22.760;2023-08-12T09:58:42;99867.66;;;24.59;40.05
58662;BME280;44432;49.786;22.760;2023-08-12T10:01:14;99864.02;;;24.68;40.25
58662;BME280;44432;49.786;22.760;2023-08-12T10:03:50;99861.14;;;24.84;40.22
58662;BME280;44432;49.786;22.760;2023-08-12T10:06:21;99858.75;;;25.00;40.10
58662;BME280;44432;49.786;22.760;2023-08-12T10:08:52;99852.73;;;25.12;40.03
58662;BME280;44432;49.786;22.760;2023-08-12T10:11:23;99850.07;;;25.29;40.03
58662;BME280;44432;49.786;22.760;2023-08-12T10:13:55;99853.79;;;25.50;39.67
58662;BME280;44432;49.786;22.760;2023-08-12T10:16:27;99850.23;;;25.68;38.99
58662;BME280;44432;49.786;22.760;2023-08-12T10:19:00;99846.98;;;25.81;38.01
58662;BME280;44432;49.786;22.760;2023-08-12T10:21:32;99842.63;;;25.91;37.58
58662;BME280;44432;49.786;22.760;2023-08-12T10:24:05;99841.64;;;25.97;36.87
58662;BME280;44432;49.786;22.760;2023-08-12T10:26:37;99840.68;;;25.99;36.29
58662;BME280;44432;49.786;22.760;2023-08-12T10:29:08;99837.97;;;26.01;36.31
58662;BME280;44432;49.786;22.760;2023-08-12T10:31:39;99836.64;;;26.05;35.92
58662;BME280;44432;49.786;22.760;2023-08-12T10:34:21;99831.35;;;26.07;36.18
58662;BME280;44432;49.786;22.760;2023-08-12T10:36:57;99829.46;;;26.15;36.17
58662;BME280;44432;49.786;22.760;2023-08-12T10:39:28;99831.28;;;26.18;36.13
58662;BME280;44432;49.786;22.760;2023-08-12T10:42:01;99832.63;;;26.19;35.86
58662;BME280;44432;49.786;22.760;2023-08-12T10:44:48;99827.96;;;26.08;35.46
58662;BME280;44432;49.786;22.760;2023-08-12T10:47:19;99832.71;;;26.03;35.70
58662;BME280;44432;49.786;22.760;2023-08-12T10:49:51;99829.13;;;26.01;35.81
58662;BME280;44432;49.786;22.760;2023-08-12T10:52:33;99831.69;;;26.03;35.85
58662;BME280;44432;49.786;22.760;2023-08-12T10:55:24;99823.52;;;26.08;35.89
58662;BME280;44432;49.786;22.760;2023-08-12T10:57:57;99821.09;;;26.12;35.80
58662;BME280;44432;49.786;22.760;2023-08-12T11:00:29;99820.95;;;26.18;35.89
58662;BME280;44432;49.786;22.760;2023-08-12T11:02:59;99821.84;;;26.25;36.09
58662;BME280;44432;49.786;22.760;2023-08-12T11:05:38;99818.55;;;26.24;35.49
58662;BME280;44432;49.786;22.760;2023-08-12T11:08:11;99813.55;;;26.15;35.48
58662;BME280;44432;49.786;22.760;2023-08-12T11:10:43;99808.84;;;26.06;35.25
58662;BME280;44432;49.786;22.760;2023-08-12T11:13:15;99808.40;;;26.00;35.95
58662;BME280;44432;49.786;22.760;2023-08-12T11:15:47;99806.55;;;26.02;35.89
58662;BME280;44432;49.786;22.760;2023-08-12T11:18:21;99804.89;;;26.06;35.44
58662;BME280;44432;49.786;22.760;2023-08-12T11:20:51;99802.12;;;26.12;35.23
58662;BME280;44432;49.786;22.760;2023-08-12T11:23:22;99795.66;;;26.21;35.33
58662;BME280;44432;49.786;22.760;2023-08-12T11:25:54;99799.02;;;26.31;35.28
58662;BME280;44432;49.786;22.760;2023-08-12T11:28:25;99794.52;;;26.40;34.76
58662;BME280;44432;49.786;22.760;2023-08-12T11:30:56;99795.84;;;26.41;34.48
58662;BME280;44432;49.786;22.760;2023-08-12T11:33:27;99790.77;;;26.46;34.57
58662;BME280;44432;49.786;22.760;2023-08-12T11:35:58;99793.75;;;26.53;34.66
58662;BME280;44432;49.786;22.760;2023-08-12T11:38:29;99788.41;;;26.57;34.42
58662;BME280;44432;49.786;22.760;2023-08-12T11:41:02;99788.27;;;26.63;34.83
58662;BME280;44432;49.786;22.760;2023-08-12T11:43:34;99784.59;;;26.65;35.39
58662;BME280;44432;49.786;22.760;2023-08-12T11:46:05;99786.65;;;26.64;35.63
58662;BME280;44432;49.786;22.760;2023-08-12T11:48:35;99782.85;;;26.70;35.10
58662;BME280;44432;49.786;22.760;2023-08-12T11:51:06;99785.95;;;26.83;34.69
58662;BME280;44432;49.786;22.760;2023-08-12T11:53:37;99781.42;;;26.93;34.60
58662;BME280;44432;49.786;22.760;2023-08-12T11:56:08;99779.30;;;26.97;33.96
58662;BME280;44432;49.786;22.760;2023-08-12T11:58:39;99777.60;;;27.02;33.51
58662;BME280;44432;49.786;22.760;2023-08-12T12:01:10;99776.36;;;26.97;32.82
58662;BME280;44432;49.786;22.760;2023-08-12T12:03:41;99777.32;;;26.86;33.36
58662;BME280;44432;49.786;22.760;2023-08-12T12:06:13;99771.02;;;26.78;33.98
58662;BME280;44432;49.786;22.760;2023-08-12T12:08:45;99774.34;;;26.75;33.52
58662;BME280;44432;49.786;22.760;2023-08-12T12:11:16;99773.28;;;26.78;33.76
58662;BME280;44432;49.786;22.760;2023-08-12T12:13:48;99777.58;;;26.86;33.48
58662;BME280;44432;49.786;22.760;2023-08-12T12:16:18;99773.67;;;26.93;33.26
58662;BME280;44432;49.786;22.760;2023-08-12T12:18:49;99771.70;;;26.99;33.30
58662;BME280;44432;49.786;22.760;2023-08-12T12:21:22;99770.73;;;27.05;33.16
58662;BME280;44432;49.786;22.760;2023-08-12T12:23:55;99770.67;;;27.05;32.86
58662;BME280;44432;49.786;22.760;2023-08-12T12:26:25;99769.01;;;27.03;32.45
58662;BME280;44432;49.786;22.760;2023-08-12T12:28:56;99766.83;;;26.99;32.69
58662;BME280;44432;49.786;22.760;2023-08-12T12:31:27;99769.77;;;27.04;32.92
58662;BME280;44432;49.786;22.760;2023-08-12T12:33:58;99771.30;;;27.06;32.43
58662;BME280;44432;49.786;22.760;2023-08-12T12:36:28;99761.56;;;27.02;32.91
58662;BME280;44432;49.786;22.760;2023-08-12T12:38:59;99758.09;;;26.98;33.24
58662;BME280;44432;49.786;22.760;2023-08-12T12:41:30;99755.45;;;27.01;32.63
58662;BME280;44432;49.786;22.760;2023-08-12T12:44:02;99758.73;;;26.96;32.58
58662;BME280;44432;49.786;22.760;2023-08-12T12:46:33;99754.73;;;26.86;32.47
58662;BME280;44432;49.786;22.760;2023-08-12T12:49:04;99754.20;;;26.74;32.62
58662;BME280;44432;49.786;22.760;2023-08-12T12:51:35;99756.90;;;26.70;32.69
58662;BME280;44432;49.786;22.760;2023-08-12T12:54:06;99754.82;;;26.68;32.97
58662;BME280;44432;49.786;22.760;2023-08-12T12:56:37;99755.52;;;26.71;33.27
58662;BME280;44432;49.786;22.760;2023-08-12T12:59:07;99751.25;;;26.78;33.13
58662;BME280;44432;49.786;22.760;2023-08-12T13:01:38;99751.86;;;26.83;33.08
58662;BME280;44432;49.786;22.760;2023-08-12T13:04:09;99750.35;;;26.90;32.91
58662;BME280;44432;49.786;22.760;2023-08-12T13:06:39;99751.23;;;26.99;32.98
58662;BME280;44432;49.786;22.760;2023-08-12T13:09:10;99749.12;;;27.07;32.76